createdAt,value
2019-02-26T00:02:25.932Z,11.10
2019-02-26T00:04:56.388Z,9.97
2019-02-26T00:07:27.543Z,10.43
2019-02-26T00:09:57.544Z,11.30
2019-02-26T00:12:28.779Z,11.30
2019-02-26T00:15:00.266Z,10.63
2019-02-26T00:17:28.972Z,10.60
2019-02-26T00:19:58.060Z,10.23
2019-02-26T00:22:27.473Z,10.63
2019-02-26T00:24:56.530Z,10.33
2019-02-26T00:27:26.259Z,10.87
2019-02-26T00:29:56.592Z,11.10
2019-02-26T00:32:26.215Z,10.43
2019-02-26T00:34:57.477Z,10.80
2019-02-26T00:37:26.398Z,9.43
2019-02-26T00:39:57.190Z,10.47
2019-02-26T00:42:26.922Z,9.87
2019-02-26T00:44:58.228Z,9.77
2019-02-26T00:47:31.870Z,10.57
2019-02-26T00:49:59.294Z,9.43
2019-02-26T00:52:30.306Z,10.67
2019-02-26T00:54:59.927Z,10.20
2019-02-26T00:57:31.741Z,10.10
2019-02-26T01:00:03.418Z,10.10
2019-02-26T01:02:32.082Z,9.97
2019-02-26T01:05:01.389Z,10.13
2019-02-26T01:07:30.372Z,9.80
2019-02-26T01:09:59.819Z,10.10
2019-02-26T01:12:30.825Z,10.20
2019-02-26T01:14:59.665Z,9.90
2019-02-26T01:17:28.861Z,10.47
2019-02-26T01:19:58.794Z,9.93
2019-02-26T01:22:28.724Z,9.93
2019-02-26T01:24:58.474Z,10.13
2019-02-26T01:27:27.622Z,9.90
2019-02-26T01:29:58.225Z,10.60
2019-02-26T01:32:27.730Z,10.27
2019-02-26T01:34:56.796Z,11.00
2019-02-26T01:37:27.718Z,10.27
2019-02-26T01:39:56.854Z,9.80
2019-02-26T01:42:27.098Z,10.57
2019-02-26T01:44:56.802Z,10.63
2019-02-26T01:47:26.753Z,10.47
2019-02-26T01:49:56.798Z,10.87
2019-02-26T01:52:25.916Z,11.20
2019-02-26T01:54:55.847Z,10.90
2019-02-26T01:57:27.688Z,10.60
2019-02-26T01:59:57.195Z,11.17
2019-02-26T02:02:28.258Z,11.13
2019-02-26T02:04:57.853Z,10.50
2019-02-26T02:07:30.511Z,11.30
2019-02-26T02:10:00.489Z,10.30
2019-02-26T02:12:31.920Z,11.30
2019-02-26T02:15:00.732Z,10.90
2019-02-26T02:17:30.928Z,10.70
2019-02-26T02:20:03.123Z,11.27
2019-02-26T02:22:33.092Z,11.57
2019-02-26T02:25:02.494Z,10.47
2019-02-26T02:27:33.271Z,10.53
2019-02-26T02:30:02.505Z,10.20
2019-02-26T02:32:34.425Z,10.70
2019-02-26T02:35:04.398Z,11.30
2019-02-26T02:37:33.616Z,11.20
2019-02-26T02:40:02.703Z,11.43
2019-02-26T02:42:31.859Z,12.33
2019-02-26T02:45:01.117Z,10.60
2019-02-26T02:47:33.253Z,10.53
2019-02-26T02:50:03.056Z,11.07
2019-02-26T02:52:35.199Z,11.23
2019-02-26T02:55:04.562Z,10.30
2019-02-26T02:57:34.500Z,11.37
2019-02-26T03:00:06.238Z,10.20
2019-02-26T03:02:40.573Z,10.50
2019-02-26T03:05:06.315Z,10.23
2019-02-26T03:07:35.354Z,10.57
2019-02-26T03:10:06.751Z,11.53
2019-02-26T03:12:36.341Z,10.43
2019-02-26T03:15:08.067Z,10.30
2019-02-26T03:17:37.262Z,10.90
2019-02-26T03:20:07.674Z,10.77
2019-02-26T03:22:39.694Z,11.03
2019-02-26T03:25:09.767Z,11.33
2019-02-26T03:27:40.573Z,10.87
2019-02-26T03:30:20.676Z,10.90
2019-02-26T03:32:47.294Z,10.60
2019-02-26T03:35:19.201Z,10.53
2019-02-26T03:37:48.786Z,10.90
2019-02-26T03:40:20.668Z,11.07
2019-02-26T03:42:49.214Z,10.67
2019-02-26T03:45:23.650Z,11.50
2019-02-26T03:47:49.170Z,11.30
2019-02-26T03:50:18.438Z,11.10
2019-02-26T03:52:47.518Z,11.13
2019-02-26T03:55:18.712Z,10.53
2019-02-26T03:57:50.610Z,10.80
2019-02-26T04:00:19.868Z,11.77
2019-02-26T04:02:51.543Z,11.30
2019-02-26T04:05:20.268Z,10.47
2019-02-26T04:07:52.324Z,11.03
2019-02-26T04:10:20.411Z,10.80
2019-02-26T04:12:52.146Z,10.60
2019-02-26T04:15:24.318Z,11.07
2019-02-26T04:17:51.055Z,11.70
2019-02-26T04:20:20.124Z,10.73
2019-02-26T04:22:49.907Z,11.13
2019-02-26T04:25:49.504Z,9.80
2019-02-26T04:28:27.258Z,10.83
2019-02-26T04:31:37.889Z,10.20
2019-02-26T04:34:59.510Z,11.00
2019-02-26T04:38:06.393Z,10.87
2019-02-26T04:40:55.445Z,11.47
2019-02-26T04:44:00.448Z,11.07
2019-02-26T04:46:51.396Z,10.50
2019-02-26T04:49:20.320Z,10.07
2019-02-26T04:51:50.500Z,10.30
2019-02-26T04:54:23.849Z,10.13
2019-02-26T04:56:51.000Z,10.13
2019-02-26T04:59:20.196Z,10.30
2019-02-26T05:01:52.338Z,11.33
2019-02-26T05:04:20.207Z,11.27
2019-02-26T05:06:49.257Z,10.80
2019-02-26T05:09:18.335Z,11.27
2019-02-26T05:11:47.527Z,10.33
2019-02-26T05:14:21.012Z,11.27
2019-02-26T05:16:47.431Z,10.77
2019-02-26T05:19:19.016Z,10.43
2019-02-26T05:21:48.350Z,10.67
2019-02-26T05:24:18.926Z,10.80
2019-02-26T05:26:48.399Z,11.63
2019-02-26T05:29:17.405Z,11.10
2019-02-26T05:31:46.644Z,11.03
2019-02-26T05:34:17.988Z,10.47
2019-02-26T05:36:46.492Z,10.53
2019-02-26T05:39:20.435Z,11.20
2019-02-26T05:41:46.692Z,10.80
2019-02-26T05:44:15.755Z,11.17
2019-02-26T05:46:47.298Z,10.77
2019-02-26T05:49:17.065Z,10.70
2019-02-26T05:51:46.800Z,10.70
2019-02-26T05:54:18.479Z,10.83
2019-02-26T05:56:49.670Z,10.37
2019-02-26T05:59:18.051Z,10.60
2019-02-26T06:01:50.041Z,11.40
2019-02-26T06:04:20.631Z,10.80
2019-02-26T06:06:51.030Z,9.90
2019-02-26T06:09:23.540Z,10.70
2019-02-26T06:11:52.002Z,11.07
2019-02-26T06:14:21.093Z,11.17
2019-02-26T06:16:53.245Z,10.90
2019-02-26T06:19:42.287Z,10.37
2019-02-26T06:22:14.487Z,10.60
2019-02-26T06:24:42.143Z,11.00
2019-02-26T06:27:13.787Z,11.03
2019-02-26T06:29:42.143Z,10.63
2019-02-26T06:32:13.716Z,11.90
2019-02-26T06:34:43.009Z,11.20
2019-02-26T06:37:17.248Z,10.63
2019-02-26T06:39:50.582Z,10.93
2019-02-26T06:42:17.509Z,11.30
2019-02-26T06:44:48.891Z,10.47
2019-02-26T06:47:18.295Z,11.00
2019-02-26T06:49:48.423Z,10.60
2019-02-26T06:52:18.272Z,11.60
2019-02-26T06:54:50.798Z,10.70
2019-02-26T06:57:18.303Z,10.90
2019-02-26T06:59:47.376Z,10.87
2019-02-26T07:02:17.103Z,11.07
2019-02-26T07:04:46.169Z,11.53
2019-02-26T07:07:15.223Z,11.60
2019-02-26T07:09:44.361Z,10.90
2019-02-26T07:12:14.612Z,11.13
2019-02-26T07:14:45.942Z,11.40
2019-02-26T07:17:14.856Z,12.20
2019-02-26T07:19:43.862Z,11.20
2019-02-26T07:22:13.608Z,11.67
2019-02-26T07:24:46.239Z,11.07
2019-02-26T07:27:14.511Z,12.57
2019-02-26T07:29:45.727Z,11.90
2019-02-26T07:32:15.441Z,11.17
2019-02-26T07:34:47.967Z,11.13
2019-02-26T07:37:16.491Z,11.60
2019-02-26T07:39:47.206Z,12.70
2019-02-26T07:42:18.659Z,12.10
2019-02-26T07:44:47.350Z,12.17
2019-02-26T07:47:16.430Z,12.77
2019-02-26T07:49:46.026Z,14.00
2019-02-26T07:52:21.441Z,14.30
2019-02-26T07:54:51.884Z,14.60
2019-02-26T07:57:22.953Z,14.73
2019-02-26T07:59:52.051Z,17.00
2019-02-26T08:02:21.137Z,15.73
2019-02-26T08:04:50.353Z,17.37
2019-02-26T08:07:21.488Z,15.23
2019-02-26T08:09:50.203Z,15.77
2019-02-26T08:12:19.488Z,17.03
2019-02-26T08:14:50.090Z,16.10
2019-02-26T08:17:19.402Z,15.90
2019-02-26T08:19:49.339Z,15.03
2019-02-26T08:22:19.145Z,14.80
2019-02-26T08:24:50.339Z,14.67
2019-02-26T08:27:19.739Z,15.07
2019-02-26T08:29:49.458Z,15.33
2019-02-26T08:32:20.998Z,14.97
2019-02-26T08:34:51.249Z,15.53
2019-02-26T08:37:20.787Z,14.93
2019-02-26T08:39:49.819Z,15.57
2019-02-26T08:42:18.962Z,15.23
2019-02-26T08:44:48.661Z,14.80
2019-02-26T08:47:21.045Z,13.83
2019-02-26T08:49:49.741Z,13.97
2019-02-26T08:52:19.928Z,13.97
2019-02-26T08:54:49.572Z,14.37
2019-02-26T08:57:18.774Z,15.03
2019-02-26T08:59:49.665Z,15.13
2019-02-26T09:02:18.845Z,14.73
2019-02-26T09:04:48.221Z,15.27
2019-02-26T09:07:19.547Z,15.00
2019-02-26T09:09:49.931Z,14.07
2019-02-26T09:12:19.824Z,13.60
2019-02-26T09:14:50.023Z,14.07
2019-02-26T09:17:23.170Z,15.67
2019-02-26T09:19:50.958Z,14.37
2019-02-26T09:22:21.661Z,15.17
2019-02-26T09:24:54.346Z,14.97
2019-02-26T09:27:24.352Z,14.70
2019-02-26T09:29:54.003Z,14.20
2019-02-26T09:32:23.176Z,14.30
2019-02-26T09:34:54.283Z,14.33
2019-02-26T09:37:24.114Z,14.37
2019-02-26T09:39:54.270Z,14.60
2019-02-26T09:42:25.651Z,14.67
2019-02-26T09:44:55.424Z,14.27
2019-02-26T09:47:33.425Z,14.70
2019-02-26T09:50:02.257Z,14.90
2019-02-26T09:52:32.682Z,14.80
2019-02-26T09:55:01.935Z,14.27
2019-02-26T09:57:31.079Z,14.50
2019-02-26T10:00:00.776Z,14.17
2019-02-26T10:02:30.799Z,13.50
2019-02-26T10:04:59.932Z,13.63
2019-02-26T10:07:31.241Z,15.83
2019-02-26T10:10:01.161Z,16.80
2019-02-26T10:12:32.179Z,18.37
2019-02-26T10:15:02.379Z,13.83
2019-02-26T10:17:33.309Z,12.73
2019-02-26T12:59:07.146Z,9.67
2019-02-26T13:01:39.376Z,9.70
2019-02-26T13:04:09.573Z,13.50
2019-02-26T13:06:41.000Z,12.30
2019-02-26T13:09:08.878Z,9.47
2019-02-26T13:11:38.056Z,9.10
2019-02-26T13:14:07.068Z,8.40
2019-02-26T13:16:36.290Z,6.87
2019-02-26T13:19:05.389Z,5.87
2019-02-26T13:21:34.476Z,5.43
2019-02-26T13:24:11.702Z,5.87
2019-02-26T13:26:36.318Z,6.23
2019-02-26T13:29:05.395Z,5.23
2019-02-26T13:31:41.751Z,4.50
2019-02-26T13:34:05.481Z,5.40
2019-02-26T13:36:36.414Z,5.77
2019-02-26T13:39:06.063Z,5.90
2019-02-26T13:41:38.941Z,6.17
2019-02-26T13:44:06.358Z,5.67
2019-02-26T13:46:35.474Z,7.23
2019-02-26T13:49:04.528Z,7.07
2019-02-26T13:51:33.745Z,7.23
2019-02-26T13:54:02.908Z,7.30
2019-02-26T13:56:32.082Z,6.93
2019-02-26T13:59:01.307Z,6.27
2019-02-26T14:01:30.350Z,6.10
2019-02-26T14:03:59.351Z,6.03
2019-02-26T14:06:28.579Z,5.93
2019-02-26T14:08:57.565Z,7.40
2019-02-26T14:11:26.692Z,8.27
2019-02-26T14:13:56.069Z,7.53
2019-02-26T14:16:25.150Z,8.43
2019-02-26T14:18:55.756Z,8.13
2019-02-26T14:21:24.991Z,8.40
2019-02-26T14:23:53.991Z,8.83
2019-02-26T14:26:23.079Z,8.17
2019-02-26T14:28:52.343Z,7.20
2019-02-26T14:31:21.684Z,7.10
2019-02-26T14:33:50.811Z,7.57
2019-02-26T14:36:20.135Z,7.60
2019-02-26T14:38:49.219Z,8.40
2019-02-26T14:41:18.281Z,7.37
2019-02-26T14:43:47.625Z,8.20
2019-02-26T14:46:16.737Z,9.20
2019-02-26T14:48:45.850Z,8.87
2019-02-26T14:51:15.333Z,9.90
2019-02-26T14:53:44.434Z,8.67
2019-02-26T14:56:13.586Z,8.93
2019-02-26T14:58:42.917Z,9.20
2019-02-26T15:01:12.073Z,9.90
2019-02-26T15:03:44.897Z,8.80
2019-02-26T15:06:14.073Z,9.60
2019-02-26T15:08:43.143Z,8.43
2019-02-26T15:11:12.395Z,8.67
2019-02-26T15:13:41.480Z,8.70
2019-02-26T15:16:10.497Z,8.10
2019-02-26T15:18:39.729Z,8.43
2019-02-26T15:21:08.826Z,8.93
2019-02-26T15:23:37.970Z,8.50
2019-02-26T15:26:07.376Z,8.87
2019-02-26T15:28:36.452Z,9.13
2019-02-26T15:31:05.548Z,8.83
2019-02-26T15:33:34.862Z,9.10
2019-02-26T15:36:04.128Z,8.67
2019-02-26T15:38:33.267Z,9.37
2019-02-26T15:41:03.266Z,9.90
2019-02-26T15:43:32.366Z,9.27
2019-02-26T15:46:01.458Z,8.87
2019-02-26T15:48:33.757Z,9.23
2019-02-26T15:51:13.956Z,9.23
2019-02-26T15:53:36.326Z,8.40
2019-02-26T15:56:07.345Z,8.43
2019-02-26T15:58:55.722Z,9.00
2019-02-26T16:01:24.759Z,9.30
2019-02-26T16:03:53.820Z,8.30
2019-02-26T16:06:23.007Z,9.23
2019-02-26T16:08:52.150Z,8.57
2019-02-26T16:11:21.210Z,9.20
2019-02-26T16:13:50.690Z,8.27
2019-02-26T16:16:19.682Z,8.00
2019-02-26T16:18:48.698Z,8.00
2019-02-26T16:21:19.325Z,7.37
2019-02-26T16:23:48.467Z,7.90
2019-02-26T16:26:17.632Z,8.20
2019-02-26T16:28:47.011Z,7.60
2019-02-26T16:31:16.080Z,7.60
2019-02-26T16:33:46.736Z,6.93
2019-02-26T16:36:16.235Z,8.73
2019-02-26T16:38:45.290Z,8.50
2019-02-26T16:41:14.615Z,7.87
2019-02-26T16:43:44.040Z,9.40
2019-02-26T16:46:13.104Z,7.87
2019-02-26T16:48:42.517Z,8.50
2019-02-26T16:51:11.837Z,8.33
2019-02-26T16:53:40.964Z,7.83
2019-02-26T16:56:10.159Z,8.87
2019-02-26T16:58:39.422Z,8.53
2019-02-26T17:01:08.937Z,7.97
2019-02-26T17:03:38.028Z,9.13
2019-02-26T17:06:07.329Z,9.20
2019-02-26T17:08:36.483Z,8.47
2019-02-26T17:11:05.630Z,9.37
2019-02-26T17:13:35.153Z,8.27
2019-02-26T17:16:04.329Z,8.77
2019-02-26T17:18:33.398Z,7.97
2019-02-26T17:21:02.674Z,8.60
2019-02-26T17:23:31.805Z,8.80
2019-02-26T17:26:01.827Z,8.60
2019-02-26T17:28:31.247Z,8.67
2019-02-26T17:31:00.270Z,8.43
2019-02-26T17:33:29.353Z,7.97
2019-02-26T17:35:59.611Z,8.33
2019-02-26T17:38:29.389Z,8.53
2019-02-26T17:40:58.554Z,8.37
2019-02-26T17:43:27.754Z,9.50
2019-02-26T17:45:56.768Z,11.23
2019-02-26T17:48:25.833Z,9.93
2019-02-26T17:50:55.656Z,8.93
2019-02-26T17:53:27.718Z,9.97
2019-02-26T17:55:55.461Z,9.50
2019-02-26T17:58:24.993Z,9.70
2019-02-26T18:00:57.770Z,9.83
2019-02-26T18:03:26.955Z,10.33
2019-02-26T18:05:55.967Z,10.67
2019-02-26T18:08:25.081Z,10.37
2019-02-26T18:10:54.263Z,9.43
2019-02-26T18:13:23.325Z,10.07
2019-02-26T18:15:56.072Z,10.00
2019-02-26T18:18:23.383Z,10.37
2019-02-26T18:20:52.689Z,9.60
2019-02-26T18:23:21.819Z,8.97
2019-02-26T18:25:50.979Z,9.57
2019-02-26T18:28:20.005Z,10.60
2019-02-26T18:30:49.071Z,9.37
2019-02-26T18:33:18.373Z,9.47
2019-02-26T18:35:47.464Z,11.07
2019-02-26T18:38:17.398Z,10.33
2019-02-26T18:40:46.981Z,10.20
2019-02-26T18:43:16.083Z,10.87
2019-02-26T18:45:45.266Z,10.23
2019-02-26T18:48:15.103Z,10.30
2019-02-26T18:50:44.816Z,10.03
2019-02-26T18:53:14.603Z,10.80
2019-02-26T18:55:44.117Z,9.57
2019-02-26T18:58:13.786Z,11.00
2019-02-26T19:00:44.011Z,10.23
2019-02-26T19:03:13.246Z,9.90
2019-02-26T19:05:42.434Z,10.57
2019-02-26T19:08:11.526Z,10.50
2019-02-26T19:10:40.837Z,10.53
2019-02-26T19:13:10.037Z,10.50
2019-02-26T19:15:39.048Z,10.57
2019-02-26T19:18:10.964Z,10.33
2019-02-26T19:20:40.197Z,10.57
2019-02-26T19:23:09.334Z,10.17
2019-02-26T19:25:41.422Z,10.77
2019-02-26T19:28:09.952Z,11.03
2019-02-26T19:30:41.426Z,11.30
2019-02-26T19:33:10.404Z,10.67
2019-02-26T19:35:40.523Z,10.77
2019-02-26T19:38:09.981Z,10.27
2019-02-26T19:40:40.445Z,10.93
2019-02-26T19:43:09.528Z,10.57
2019-02-26T19:45:38.675Z,10.87
2019-02-26T19:48:07.754Z,12.23
2019-02-26T19:50:36.690Z,11.07
2019-02-26T19:53:05.833Z,11.17
2019-02-26T19:55:35.946Z,12.17
2019-02-26T19:58:06.795Z,10.67
2019-02-26T20:00:36.188Z,10.70
2019-02-26T20:03:06.116Z,11.60
2019-02-26T20:05:35.233Z,11.17
2019-02-26T20:08:09.309Z,11.57
2019-02-26T20:10:38.484Z,11.93
2019-02-26T20:13:12.482Z,13.00
2019-02-26T20:15:38.571Z,12.63
2019-02-26T20:18:07.631Z,13.20
2019-02-26T20:20:40.823Z,13.60
2019-02-26T20:23:07.362Z,14.37
2019-02-26T20:25:36.437Z,13.50
2019-02-26T20:28:05.905Z,13.23
2019-02-26T20:30:35.346Z,14.20
2019-02-26T20:33:04.820Z,13.00
2019-02-26T20:35:34.072Z,12.20
2019-02-26T20:38:03.583Z,13.00
2019-02-26T20:40:32.642Z,12.10
2019-02-26T20:43:01.993Z,12.80
2019-02-26T20:45:32.570Z,13.10
2019-02-26T20:48:03.867Z,13.40
2019-02-26T20:50:32.349Z,13.47
2019-02-26T20:53:05.702Z,13.80
2019-02-26T20:55:33.804Z,14.33
2019-02-26T20:58:03.179Z,14.20
2019-02-26T21:00:32.306Z,14.40
2019-02-26T21:03:01.359Z,14.27
2019-02-26T21:05:30.597Z,15.47
2019-02-26T21:07:59.659Z,15.03
2019-02-26T21:10:28.719Z,14.30
2019-02-26T21:13:01.655Z,14.10
2019-02-26T21:15:28.817Z,14.30
2019-02-26T21:17:58.593Z,15.57
2019-02-26T21:20:28.101Z,14.20
2019-02-26T21:22:57.206Z,14.23
2019-02-26T21:25:26.278Z,14.87
2019-02-26T21:27:55.501Z,15.30
2019-02-26T21:30:24.693Z,15.43
2019-02-26T21:32:57.880Z,15.40
2019-02-26T21:35:24.717Z,15.63
2019-02-26T21:37:53.893Z,16.23
2019-02-26T21:40:22.965Z,16.53
2019-02-26T21:42:52.313Z,14.87
2019-02-26T21:45:21.373Z,16.30
2019-02-26T21:47:50.493Z,14.97
2019-02-26T21:50:22.312Z,15.50
2019-02-26T21:53:06.051Z,15.57
2019-02-26T21:55:21.576Z,15.83
2019-02-26T21:57:54.554Z,16.03
2019-02-26T22:00:21.882Z,14.73
2019-02-26T22:02:52.410Z,15.20
2019-02-26T22:05:21.730Z,15.70
2019-02-26T22:07:52.363Z,16.73
2019-02-26T22:10:22.104Z,16.73
2019-02-26T22:12:51.199Z,18.33
2019-02-26T22:15:20.794Z,16.70
2019-02-26T22:17:49.934Z,17.53
2019-02-26T22:20:26.571Z,18.77
2019-02-26T22:22:50.070Z,18.70
2019-02-26T22:25:19.356Z,18.47
2019-02-26T22:27:48.466Z,18.97
2019-02-26T22:30:21.501Z,21.37
2019-02-26T22:32:48.733Z,21.67
2019-02-26T22:35:17.855Z,20.20
2019-02-26T22:37:47.150Z,20.67
2019-02-26T22:40:16.296Z,20.57
2019-02-26T22:42:45.390Z,20.30
2019-02-26T22:45:15.250Z,21.00
2019-02-26T22:47:44.668Z,19.33
2019-02-26T22:50:14.022Z,19.80
2019-02-26T22:55:03.110Z,19.43
2019-02-26T22:57:32.154Z,19.07
2019-02-26T23:00:01.249Z,19.43
2019-02-26T23:02:31.501Z,18.87
2019-02-26T23:05:00.663Z,19.03
2019-02-26T23:07:29.729Z,19.07
2019-02-26T23:09:59.191Z,18.27
2019-02-26T23:12:28.839Z,17.40
2019-02-26T23:14:57.845Z,18.53
2019-02-26T23:17:28.920Z,17.07
2019-02-26T23:19:58.239Z,17.93
2019-02-26T23:22:28.203Z,17.07
2019-02-26T23:25:00.693Z,17.40
2019-02-26T23:27:28.373Z,17.83
2019-02-26T23:29:57.737Z,17.30
2019-02-26T23:32:27.900Z,17.43
2019-02-26T23:35:05.637Z,17.10
2019-02-26T23:37:35.318Z,17.47
2019-02-26T23:40:05.633Z,16.40
2019-02-26T23:42:38.543Z,16.80
2019-02-26T23:45:06.245Z,17.03
2019-02-26T23:47:35.695Z,16.23
2019-02-26T23:50:05.357Z,17.33
2019-02-26T23:52:34.382Z,16.00
2019-02-26T23:55:03.481Z,16.67
2019-02-26T23:57:32.783Z,15.10
